createdAt,value
2019-03-23T00:01:35.103Z,0.80
2019-03-23T00:04:03.734Z,0.70
2019-03-23T00:06:32.499Z,0.70
2019-03-23T00:09:01.176Z,0.70
2019-03-23T00:11:29.923Z,0.70
2019-03-23T00:13:58.596Z,0.70
2019-03-23T00:16:27.403Z,0.60
2019-03-23T00:18:56.004Z,0.60
2019-03-23T00:21:24.735Z,0.60
2019-03-23T00:24:20.235Z,0.60
2019-03-23T00:26:48.904Z,0.50
2019-03-23T00:29:17.575Z,0.50
2019-03-23T00:31:46.355Z,0.50
2019-03-23T00:34:15.095Z,0.50
2019-03-23T00:36:43.778Z,0.50
2019-03-23T00:39:12.441Z,0.50
2019-03-23T00:41:41.116Z,0.40
2019-03-23T00:44:09.783Z,0.30
2019-03-23T00:46:38.472Z,0.30
2019-03-23T00:49:07.177Z,0.30
2019-03-23T00:51:35.979Z,0.30
2019-03-23T00:54:04.710Z,0.20
2019-03-23T00:56:33.451Z,0.20
2019-03-23T00:59:02.259Z,0.20
2019-03-23T01:01:31.011Z,0.10
2019-03-23T01:03:59.754Z,0.10
2019-03-23T01:06:28.485Z,0.10
2019-03-23T01:08:57.186Z,0.10
2019-03-23T01:11:25.915Z,0.10
2019-03-23T01:13:54.588Z,0.00
2019-03-23T01:16:23.327Z,0.00
2019-03-23T01:18:51.995Z,-0.10
2019-03-23T01:21:20.666Z,-0.10
2019-03-23T01:23:49.404Z,-0.10
2019-03-23T01:26:18.146Z,-0.10
2019-03-23T01:28:46.910Z,-0.10
2019-03-23T01:31:15.579Z,-0.10
2019-03-23T01:33:44.386Z,-0.10
2019-03-23T01:36:13.064Z,-0.10
2019-03-23T01:38:41.862Z,-0.10
2019-03-23T01:41:11.852Z,-0.10
2019-03-23T01:43:40.519Z,-0.10
2019-03-23T01:46:09.190Z,-0.10
2019-03-23T01:48:37.858Z,-0.10
2019-03-23T01:51:06.535Z,-0.10
2019-03-23T01:53:35.226Z,-0.10
2019-03-23T01:56:03.863Z,-0.10
2019-03-23T01:58:32.531Z,-0.10
2019-03-23T02:01:01.280Z,-0.10
2019-03-23T02:03:30.030Z,-0.10
2019-03-23T02:05:58.630Z,-0.10
2019-03-23T02:08:28.790Z,-0.10
2019-03-23T02:10:57.526Z,-0.10
2019-03-23T02:13:26.246Z,-0.10
2019-03-23T02:15:54.920Z,-0.10
2019-03-23T02:18:23.582Z,-0.10
2019-03-23T02:20:52.206Z,-0.10
2019-03-23T02:23:20.916Z,-0.10
2019-03-23T02:25:49.655Z,-0.10
2019-03-23T02:28:18.404Z,-0.10
2019-03-23T02:30:47.067Z,-0.10
2019-03-23T02:33:15.816Z,-0.10
2019-03-23T02:35:44.494Z,-0.10
2019-03-23T02:38:13.152Z,-0.10
2019-03-23T02:40:41.827Z,-0.10
2019-03-23T02:43:10.495Z,-0.10
2019-03-23T02:45:39.175Z,-0.20
2019-03-23T02:48:07.846Z,-0.10
2019-03-23T02:50:36.539Z,-0.20
2019-03-23T02:53:05.212Z,-0.20
2019-03-23T02:55:33.885Z,-0.20
2019-03-23T02:58:02.555Z,-0.20
2019-03-23T03:00:31.291Z,-0.20
2019-03-23T03:02:59.965Z,-0.20
2019-03-23T03:05:28.676Z,-0.30
2019-03-23T03:07:57.349Z,-0.30
2019-03-23T03:10:42.090Z,-0.30
2019-03-23T03:13:11.042Z,-0.30
2019-03-23T03:15:39.975Z,-0.40
2019-03-23T03:18:09.344Z,-0.40
2019-03-23T03:20:38.116Z,-0.40
2019-03-23T03:23:06.859Z,-0.40
2019-03-23T03:25:35.531Z,-0.50
2019-03-23T03:28:04.479Z,-0.50
2019-03-23T03:30:33.211Z,-0.40
2019-03-23T03:33:01.953Z,-0.40
2019-03-23T03:35:30.623Z,-0.40
2019-03-23T03:37:59.326Z,-0.40
2019-03-23T03:40:28.012Z,-0.50
2019-03-23T03:42:56.776Z,-0.50
2019-03-23T03:45:28.061Z,-0.50
2019-03-23T03:47:56.784Z,-0.50
2019-03-23T03:50:25.592Z,-0.40
2019-03-23T03:52:54.330Z,-0.40
2019-03-23T03:55:22.989Z,-0.40
2019-03-23T03:57:51.726Z,-0.40
2019-03-23T04:00:20.472Z,-0.40
2019-03-23T04:02:49.209Z,-0.40
2019-03-23T04:05:17.944Z,-0.30
2019-03-23T04:07:47.277Z,-0.20
2019-03-23T04:10:15.937Z,-0.20
2019-03-23T04:12:44.697Z,-0.20
2019-03-23T04:15:13.631Z,-0.20
2019-03-23T04:17:42.374Z,-0.20
2019-03-23T04:20:11.715Z,-0.10
2019-03-23T04:22:40.386Z,-0.10
2019-03-23T04:25:10.433Z,-0.10
2019-03-23T04:27:39.209Z,-0.10
2019-03-23T04:30:10.208Z,0.00
2019-03-23T04:32:39.248Z,-0.10
2019-03-23T04:35:08.984Z,0.00
2019-03-23T04:37:37.716Z,0.00
2019-03-23T04:40:10.807Z,0.10
2019-03-23T04:42:39.634Z,0.10
2019-03-23T04:45:10.028Z,0.10
2019-03-23T04:47:38.759Z,0.10
2019-03-23T04:50:09.789Z,0.10
2019-03-23T04:52:38.470Z,0.10
2019-03-23T04:57:49.499Z,0.20
2019-03-23T05:00:20.145Z,0.20
2019-03-23T05:02:48.952Z,0.30
2019-03-23T05:05:17.699Z,0.30
2019-03-23T05:07:46.359Z,0.30
2019-03-23T05:10:15.249Z,0.40
2019-03-23T05:12:43.873Z,0.40
2019-03-23T05:15:12.611Z,0.50
2019-03-23T05:17:41.207Z,0.60
2019-03-23T05:20:11.141Z,0.60
2019-03-23T05:22:39.911Z,0.70
2019-03-23T05:25:11.575Z,0.80
2019-03-23T05:27:40.237Z,0.90
2019-03-23T05:30:35.127Z,1.00
2019-03-23T05:33:03.799Z,1.10
2019-03-23T05:35:32.459Z,1.40
2019-03-23T05:38:01.128Z,2.10
2019-03-23T05:40:29.791Z,2.70
2019-03-23T05:42:58.521Z,3.40
2019-03-23T05:45:27.198Z,4.10
2019-03-23T05:47:55.860Z,4.70
2019-03-23T05:50:24.519Z,4.60
2019-03-23T05:52:54.902Z,4.70
2019-03-23T05:55:23.551Z,4.60
2019-03-23T05:57:52.139Z,4.40
2019-03-23T06:00:21.184Z,4.40
2019-03-23T06:02:49.836Z,4.70
2019-03-23T06:05:18.513Z,5.00
2019-03-23T06:07:47.170Z,5.20
2019-03-23T06:10:15.859Z,5.20
2019-03-23T06:12:44.570Z,5.20
2019-03-23T06:15:13.503Z,5.00
2019-03-23T06:17:42.202Z,5.10
2019-03-23T06:20:11.271Z,5.10
2019-03-23T06:22:39.938Z,5.10
2019-03-23T06:25:08.736Z,5.30
2019-03-23T06:27:37.413Z,5.60
2019-03-23T06:30:09.044Z,5.80
2019-03-23T06:32:37.631Z,6.00
2019-03-23T06:35:07.464Z,6.10
2019-03-23T06:37:36.191Z,6.40
2019-03-23T06:40:10.251Z,6.50
2019-03-23T06:42:39.170Z,6.70
2019-03-23T06:45:10.151Z,6.60
2019-03-23T06:47:37.992Z,6.60
2019-03-23T06:50:08.961Z,6.90
2019-03-23T06:52:36.847Z,7.10
2019-03-23T06:55:07.279Z,7.10
2019-03-23T06:57:36.216Z,7.40
2019-03-23T07:00:07.948Z,7.50
2019-03-23T07:02:36.610Z,7.90
2019-03-23T07:05:07.758Z,8.10
2019-03-23T07:07:36.492Z,8.00
2019-03-23T07:10:07.586Z,7.70
2019-03-23T07:12:36.395Z,7.50
2019-03-23T07:15:18.969Z,7.20
2019-03-23T07:17:38.440Z,7.00
2019-03-23T07:20:12.567Z,6.80
2019-03-23T07:22:41.302Z,6.50
2019-03-23T07:25:11.752Z,6.40
2019-03-23T07:27:40.551Z,6.20
2019-03-23T07:30:12.232Z,6.30
2019-03-23T07:32:40.955Z,6.40
2019-03-23T07:35:14.366Z,6.40
2019-03-23T07:37:43.429Z,6.50
2019-03-23T07:40:13.077Z,6.50
2019-03-23T07:42:41.901Z,6.70
2019-03-23T07:45:14.885Z,6.70
2019-03-23T07:47:43.695Z,6.80
2019-03-23T07:50:13.637Z,6.70
2019-03-23T07:52:42.435Z,6.60
2019-03-23T07:55:15.348Z,6.60
2019-03-23T07:57:44.256Z,6.60
2019-03-23T08:00:20.576Z,6.60
2019-03-23T08:02:49.407Z,6.60
2019-03-23T08:05:18.066Z,6.60
2019-03-23T08:07:46.816Z,6.60
2019-03-23T08:10:29.605Z,6.60
2019-03-23T08:12:58.451Z,6.60
2019-03-23T08:15:27.410Z,6.60
2019-03-23T08:17:56.540Z,6.70
2019-03-23T08:20:25.649Z,6.70
2019-03-23T08:22:55.156Z,6.70
2019-03-23T08:25:23.780Z,6.80
2019-03-23T08:27:52.519Z,6.80
2019-03-23T08:30:21.252Z,6.90
2019-03-23T08:32:49.923Z,7.00
2019-03-23T08:35:18.588Z,7.00
2019-03-23T08:37:47.320Z,7.20
2019-03-23T08:40:17.882Z,7.30
2019-03-23T08:42:46.599Z,7.30
2019-03-23T08:45:15.446Z,7.50
2019-03-23T08:47:44.060Z,7.50
2019-03-23T08:50:12.859Z,7.60
2019-03-23T08:52:41.531Z,7.70
2019-03-23T08:55:10.321Z,7.70
2019-03-23T08:57:41.268Z,7.90
2019-03-23T09:00:09.727Z,7.90
2019-03-23T09:02:38.467Z,7.90
2019-03-23T09:05:07.266Z,7.90
2019-03-23T09:07:35.944Z,8.10
2019-03-23T09:10:31.577Z,8.20
2019-03-23T09:13:00.242Z,8.30
2019-03-23T09:15:28.913Z,8.40
2019-03-23T09:17:57.578Z,8.50
2019-03-23T09:20:26.272Z,8.50
2019-03-23T09:22:55.031Z,8.40
2019-03-23T09:25:23.695Z,8.40
2019-03-23T09:27:52.359Z,8.30
2019-03-23T09:30:21.096Z,8.30
2019-03-23T09:32:49.758Z,8.30
2019-03-23T09:35:18.429Z,8.50
2019-03-23T09:37:47.172Z,8.50
2019-03-23T09:40:15.833Z,8.70
2019-03-23T09:42:44.503Z,8.80
2019-03-23T09:45:14.436Z,8.80
2019-03-23T09:47:43.251Z,8.80
2019-03-23T09:50:12.085Z,8.90
2019-03-23T09:52:40.830Z,9.10
2019-03-23T09:55:09.669Z,9.20
2019-03-23T09:57:38.330Z,9.20
2019-03-23T10:00:09.459Z,9.20
2019-03-23T10:02:38.167Z,9.30
2019-03-23T10:05:07.700Z,9.50
2019-03-23T10:07:58.727Z,9.50
2019-03-23T10:10:27.385Z,9.60
2019-03-23T10:12:56.068Z,9.60
2019-03-23T10:15:24.730Z,9.60
2019-03-23T10:17:53.477Z,9.80
2019-03-23T10:20:22.021Z,9.90
2019-03-23T10:22:50.664Z,9.90
2019-03-23T10:25:22.166Z,9.90
2019-03-23T10:27:50.915Z,9.90
2019-03-23T10:30:19.735Z,9.90
2019-03-23T10:32:48.461Z,9.90
2019-03-23T10:35:17.132Z,10.00
2019-03-23T10:37:45.972Z,10.10
2019-03-23T10:40:14.707Z,10.20
2019-03-23T10:42:43.551Z,10.30
2019-03-23T10:45:12.596Z,10.50
2019-03-23T10:47:41.351Z,10.60
2019-03-23T10:50:10.536Z,10.60
2019-03-23T10:52:39.206Z,10.70
2019-03-23T10:55:15.040Z,10.60
2019-03-23T10:57:43.801Z,10.60
2019-03-23T11:00:13.808Z,10.70
2019-03-23T11:02:42.491Z,10.70
2019-03-23T11:05:11.703Z,10.70
2019-03-23T11:07:40.380Z,10.80
2019-03-23T11:10:11.723Z,10.90
2019-03-23T11:12:40.458Z,10.90
2019-03-23T11:15:10.198Z,10.90
2019-03-23T11:17:38.935Z,10.90
2019-03-23T11:20:10.053Z,11.00
2019-03-23T11:22:38.789Z,10.90
2019-03-23T11:25:08.206Z,11.00
2019-03-23T11:27:36.885Z,11.00
2019-03-23T11:30:08.284Z,11.10
2019-03-23T11:32:37.007Z,11.10
2019-03-23T11:35:08.139Z,11.20
2019-03-23T11:37:37.673Z,11.20
2019-03-23T11:40:08.914Z,11.20
2019-03-23T11:42:36.874Z,11.20
2019-03-23T11:45:09.463Z,11.20
2019-03-23T11:47:38.209Z,11.10
2019-03-23T11:50:08.414Z,11.20
2019-03-23T11:52:37.087Z,11.20
2019-03-23T11:55:07.871Z,11.10
2019-03-23T11:57:36.606Z,11.10
2019-03-23T12:00:08.420Z,11.10
2019-03-23T12:02:37.224Z,11.20
2019-03-23T12:05:07.781Z,11.30
2019-03-23T12:07:36.455Z,11.30
2019-03-23T12:10:10.254Z,11.40
2019-03-23T12:12:39.228Z,11.40
2019-03-23T12:15:09.936Z,11.30
2019-03-23T12:17:38.755Z,11.20
2019-03-23T12:20:08.400Z,11.10
2019-03-23T12:22:37.031Z,11.10
2019-03-23T12:25:07.443Z,11.20
2019-03-23T12:27:36.152Z,11.20
2019-03-23T12:30:07.775Z,11.20
2019-03-23T12:32:36.595Z,11.30
2019-03-23T12:35:07.839Z,11.30
2019-03-23T12:37:36.548Z,11.40
2019-03-23T12:40:07.199Z,11.30
2019-03-23T12:42:35.944Z,11.30
2019-03-23T12:45:06.192Z,11.30
2019-03-23T12:47:34.944Z,11.30
2019-03-23T12:50:04.979Z,11.20
2019-03-23T12:52:33.790Z,11.20
2019-03-23T12:55:02.468Z,11.10
2019-03-23T12:57:31.143Z,11.00
2019-03-23T12:59:59.745Z,11.00
2019-03-23T13:02:28.539Z,11.00
2019-03-23T13:04:57.207Z,10.90
2019-03-23T13:07:25.959Z,10.80
2019-03-23T13:09:54.630Z,10.70
2019-03-23T13:12:23.185Z,10.80
2019-03-23T13:14:51.823Z,10.70
2019-03-23T13:17:20.570Z,10.60
2019-03-23T13:19:49.196Z,10.50
2019-03-23T13:22:17.836Z,10.40
2019-03-23T13:24:46.502Z,10.30
2019-03-23T13:27:15.251Z,10.40
2019-03-23T13:29:43.924Z,10.30
2019-03-23T13:32:12.602Z,10.30
2019-03-23T13:34:41.274Z,10.30
2019-03-23T13:37:09.875Z,10.30
2019-03-23T13:39:38.638Z,10.20
2019-03-23T13:42:07.305Z,10.20
2019-03-23T13:44:36.075Z,10.30
2019-03-23T13:47:04.823Z,10.30
2019-03-23T13:49:33.575Z,10.30
2019-03-23T13:52:02.249Z,10.10
2019-03-23T13:54:41.237Z,10.10
2019-03-23T13:57:09.956Z,10.00
2019-03-23T13:59:38.626Z,10.00
2019-03-23T14:02:07.446Z,10.00
2019-03-23T14:04:36.126Z,10.00
2019-03-23T14:07:05.048Z,9.90
2019-03-23T14:09:33.779Z,9.80
2019-03-23T14:12:02.451Z,9.80
2019-03-23T14:14:31.118Z,9.80
2019-03-23T14:16:59.817Z,9.70
2019-03-23T14:19:28.451Z,9.70
2019-03-23T14:21:57.347Z,9.60
2019-03-23T14:24:26.019Z,9.60
2019-03-23T14:26:54.814Z,9.50
2019-03-23T14:29:23.640Z,9.50
2019-03-23T14:31:52.376Z,9.50
2019-03-23T14:34:21.044Z,9.50
2019-03-23T14:37:11.908Z,9.50
2019-03-23T14:39:40.592Z,9.50
2019-03-23T14:42:09.219Z,9.40
2019-03-23T14:44:37.866Z,9.40
2019-03-23T14:47:06.632Z,9.40
2019-03-23T14:49:35.374Z,9.40
2019-03-23T14:52:04.054Z,9.30
2019-03-23T14:54:32.721Z,9.30
2019-03-23T14:57:01.398Z,9.20
2019-03-23T14:59:30.168Z,9.30
2019-03-23T15:01:58.915Z,9.20
2019-03-23T15:04:27.687Z,9.10
2019-03-23T15:06:56.291Z,9.10
2019-03-23T15:09:24.969Z,9.10
2019-03-23T15:11:53.635Z,9.10
2019-03-23T15:14:22.383Z,9.10
2019-03-23T15:16:51.123Z,9.00
2019-03-23T15:19:20.015Z,8.90
2019-03-23T15:21:48.690Z,8.90
2019-03-23T15:24:17.425Z,8.90
2019-03-23T15:26:46.159Z,8.90
2019-03-23T15:29:14.930Z,8.80
2019-03-23T15:31:43.611Z,8.80
2019-03-23T15:34:12.352Z,8.70
2019-03-23T15:36:41.020Z,8.70
2019-03-23T15:39:09.767Z,8.70
2019-03-23T15:41:38.508Z,8.60
2019-03-23T15:44:07.320Z,8.60
2019-03-23T15:46:35.980Z,8.60
2019-03-23T15:49:05.598Z,8.60
2019-03-23T15:51:34.263Z,8.60
2019-03-23T15:54:03.019Z,8.60
2019-03-23T15:56:31.705Z,8.50
2019-03-23T15:59:00.375Z,8.50
2019-03-23T16:01:29.039Z,8.50
2019-03-23T16:03:57.711Z,8.50
2019-03-23T16:06:26.411Z,8.50
2019-03-23T16:08:55.188Z,8.40
2019-03-23T16:11:23.933Z,8.40
2019-03-23T16:13:52.591Z,8.40
2019-03-23T16:16:21.332Z,8.40
2019-03-23T16:18:50.051Z,8.40
2019-03-23T16:21:18.659Z,8.40
2019-03-23T16:23:48.555Z,8.40
2019-03-23T16:26:17.394Z,8.40
2019-03-23T16:28:46.028Z,8.40
2019-03-23T16:31:14.725Z,8.40
2019-03-23T16:33:43.397Z,8.50
2019-03-23T16:36:12.063Z,8.40
2019-03-23T16:38:40.667Z,8.40
2019-03-23T16:41:09.410Z,8.40
2019-03-23T16:43:38.076Z,8.40
2019-03-23T16:46:06.854Z,8.30
2019-03-23T16:48:35.530Z,8.40
2019-03-23T16:51:04.343Z,8.40
2019-03-23T16:53:33.012Z,8.40
2019-03-23T16:56:01.758Z,8.40
2019-03-23T16:58:30.427Z,8.30
2019-03-23T17:00:59.160Z,8.30
2019-03-23T17:03:27.828Z,8.30
2019-03-23T17:05:56.571Z,8.30
2019-03-23T17:08:26.341Z,8.20
2019-03-23T17:10:55.196Z,8.20
2019-03-23T17:13:23.871Z,8.10
2019-03-23T17:15:52.539Z,8.00
2019-03-23T17:18:21.209Z,8.00
2019-03-23T17:20:50.021Z,8.00
2019-03-23T17:23:18.703Z,8.00
2019-03-23T17:25:47.444Z,8.00
2019-03-23T17:28:16.139Z,7.90
2019-03-23T17:30:44.843Z,8.00
2019-03-23T17:33:13.591Z,7.90
2019-03-23T17:35:42.266Z,7.90
2019-03-23T17:38:10.940Z,7.90
2019-03-23T17:40:39.545Z,7.90
2019-03-23T17:43:08.484Z,7.90
2019-03-23T17:45:37.145Z,7.90
2019-03-23T17:48:05.884Z,7.90
2019-03-23T17:50:34.739Z,7.90
2019-03-23T17:53:03.561Z,7.90
2019-03-23T17:55:32.302Z,7.90
2019-03-23T17:58:01.111Z,7.90
2019-03-23T18:00:30.657Z,7.80
2019-03-23T18:02:59.597Z,7.90
2019-03-23T18:05:28.331Z,7.80
2019-03-23T18:07:57.288Z,7.80
2019-03-23T18:10:49.361Z,7.80
2019-03-23T18:13:18.232Z,7.90
2019-03-23T18:15:46.906Z,7.80
2019-03-23T18:18:15.643Z,7.80
2019-03-23T18:20:44.311Z,7.80
2019-03-23T18:23:13.057Z,7.80
2019-03-23T18:25:41.723Z,7.80
2019-03-23T18:28:10.504Z,7.80
2019-03-23T18:30:43.291Z,7.80
2019-03-23T18:33:12.087Z,7.80
2019-03-23T18:35:41.000Z,7.80
2019-03-23T18:38:09.741Z,7.90
2019-03-23T18:40:38.487Z,7.80
2019-03-23T18:43:07.201Z,7.80
2019-03-23T18:45:35.890Z,7.80
2019-03-23T18:48:04.937Z,7.80
2019-03-23T18:50:33.714Z,7.90
2019-03-23T18:53:02.381Z,7.80
2019-03-23T18:55:32.862Z,7.80
2019-03-23T18:58:01.596Z,7.80
2019-03-23T19:00:37.543Z,7.80
2019-03-23T19:03:06.398Z,7.80
2019-03-23T19:05:35.234Z,7.80
2019-03-23T19:08:04.271Z,7.80
2019-03-23T19:10:32.956Z,7.80
2019-03-23T19:13:01.692Z,7.80
2019-03-23T19:15:30.430Z,7.80
2019-03-23T19:17:59.166Z,7.80
2019-03-23T19:20:27.932Z,7.70
2019-03-23T19:22:56.666Z,7.60
2019-03-23T19:25:25.501Z,7.70
2019-03-23T19:27:54.194Z,7.60
2019-03-23T19:30:23.342Z,7.60
2019-03-23T19:32:52.028Z,7.60
2019-03-23T19:35:30.395Z,7.60
2019-03-23T19:37:59.076Z,7.60
2019-03-23T19:40:27.815Z,7.50
2019-03-23T19:42:56.487Z,7.50
2019-03-23T19:45:25.228Z,7.50
2019-03-23T19:47:53.831Z,7.40
2019-03-23T19:50:22.673Z,7.40
2019-03-23T19:52:51.416Z,7.50
2019-03-23T19:55:20.256Z,7.40
2019-03-23T19:57:48.985Z,7.30
2019-03-23T20:00:18.611Z,7.20
2019-03-23T20:02:47.282Z,7.20
2019-03-23T20:05:16.029Z,7.20
2019-03-23T20:07:44.762Z,7.10
2019-03-23T20:10:13.952Z,7.10
2019-03-23T20:12:42.691Z,7.00
2019-03-23T20:15:12.028Z,7.00
2019-03-23T20:17:40.767Z,7.00
2019-03-23T20:20:11.992Z,6.90
2019-03-23T20:22:40.718Z,6.90
2019-03-23T20:25:09.760Z,6.80
2019-03-23T20:27:38.505Z,6.80
2019-03-23T20:30:09.511Z,6.80
2019-03-23T20:32:37.478Z,6.70
2019-03-23T20:35:07.409Z,6.70
2019-03-23T20:37:36.083Z,6.60
2019-03-23T20:40:07.115Z,6.60
2019-03-23T20:42:35.095Z,6.60
2019-03-23T20:45:07.645Z,6.50
2019-03-23T20:47:37.193Z,6.50
2019-03-23T20:50:07.728Z,6.50
2019-03-23T20:52:36.665Z,6.40
2019-03-23T20:55:08.076Z,6.30
2019-03-23T20:57:39.486Z,6.30
2019-03-23T21:00:09.100Z,6.30
2019-03-23T21:02:37.768Z,6.30
2019-03-23T21:05:06.535Z,6.20
2019-03-23T21:07:35.259Z,6.20
2019-03-23T21:10:04.995Z,6.20
2019-03-23T21:12:33.758Z,6.10
2019-03-23T21:15:02.424Z,6.10
2019-03-23T21:17:31.195Z,6.10
2019-03-23T21:19:59.869Z,6.00
2019-03-23T21:22:28.609Z,5.90
2019-03-23T21:24:57.277Z,5.90
2019-03-23T21:27:27.193Z,5.90
2019-03-23T21:29:55.785Z,5.90
2019-03-23T21:32:24.510Z,5.90
2019-03-23T21:34:53.186Z,5.80
2019-03-23T21:37:21.920Z,5.80
2019-03-23T21:39:50.647Z,5.70
2019-03-23T21:42:19.340Z,5.70
2019-03-23T21:44:47.996Z,5.70
2019-03-23T21:47:16.814Z,5.70
2019-03-23T21:49:45.476Z,5.70
2019-03-23T21:52:14.242Z,5.70
2019-03-23T21:54:42.908Z,5.60
2019-03-23T21:57:11.582Z,5.50
2019-03-23T21:59:40.248Z,5.50
2019-03-23T22:02:08.916Z,5.50
2019-03-23T22:04:37.575Z,5.50
2019-03-23T22:07:06.386Z,5.50
2019-03-23T22:09:35.046Z,5.40
2019-03-23T22:12:03.858Z,5.40
2019-03-23T22:14:41.373Z,5.40
2019-03-23T22:17:05.524Z,5.30
2019-03-23T22:19:33.428Z,5.30
2019-03-23T22:22:02.182Z,5.30
2019-03-23T22:24:30.778Z,5.20
2019-03-23T22:26:59.553Z,5.20
2019-03-23T22:29:28.224Z,5.20
2019-03-23T22:31:56.893Z,5.20
2019-03-23T22:34:25.558Z,5.10
2019-03-23T22:36:54.304Z,5.10
2019-03-23T22:39:22.947Z,5.10
2019-03-23T22:41:51.719Z,5.00
2019-03-23T22:44:20.401Z,5.00
2019-03-23T22:46:49.199Z,4.90
2019-03-23T22:49:17.863Z,4.90
2019-03-23T22:51:46.530Z,4.90
2019-03-23T22:54:15.190Z,4.90
2019-03-23T22:56:43.865Z,4.90
2019-03-23T22:59:12.600Z,4.80
2019-03-23T23:01:41.342Z,4.80
2019-03-23T23:04:10.005Z,4.70
2019-03-23T23:06:38.667Z,4.70
2019-03-23T23:09:09.375Z,4.70
2019-03-23T23:11:38.051Z,4.70
2019-03-23T23:14:06.785Z,4.70
2019-03-23T23:16:35.456Z,4.60
2019-03-23T23:19:04.263Z,4.60
2019-03-23T23:21:32.928Z,4.60
2019-03-23T23:24:01.673Z,4.60
2019-03-23T23:26:30.272Z,4.60
2019-03-23T23:28:58.942Z,4.60
2019-03-23T23:31:27.611Z,4.60
2019-03-23T23:33:56.345Z,4.50
2019-03-23T23:36:25.013Z,4.50
2019-03-23T23:38:53.730Z,4.50
2019-03-23T23:41:22.478Z,4.40
2019-03-23T23:43:51.166Z,4.40
2019-03-23T23:46:19.798Z,4.40
2019-03-23T23:48:53.715Z,4.30
2019-03-23T23:51:22.878Z,4.30
2019-03-23T23:54:04.188Z,4.30
2019-03-23T23:56:33.539Z,4.30
2019-03-23T23:59:02.190Z,4.30
